| time (UTC) | temp F | wind direction | speed knots | gust knots | rain 1hr in | rain 24hr in | rain mn in | humidity % | barometer mb |
| 20260507031003 | 57 | 217 | 0.0 | 2.6 | 0.00 | 0.03 | 0.03 | 95 | 1007.2 |
| 20260507030524 | 57 | 214 | 0.0 | 2.6 | 0.00 | 0.03 | 0.03 | 95 | 1007.1 |
| 20260507030013 | 57 | 214 | 0.0 | 2.6 | 0.00 | 0.03 | 0.03 | 95 | 1006.0 |
| 20260507030003 | 57 | 214 | 0.0 | 2.6 | 0.00 | 0.03 | 0.03 | 95 | 1007.0 |
| 20260507025503 | 57 | 211 | 0.0 | 2.6 | 0.00 | 0.03 | 0.03 | 95 | 1007.1 |
| 20260507025003 | 57 | 211 | 0.0 | 2.6 | 0.00 | 0.03 | 0.03 | 95 | 1007.0 |
| 20260507024509 | 56 | 212 | 0.0 | 1.7 | 0.00 | 0.03 | 0.03 | 95 | 1005.9 |
| 20260507024503 | 57 | 211 | 0.0 | 1.7 | 0.00 | 0.03 | 0.03 | 95 | 1006.9 |
| 20260507024024 | 57 | 211 | 0.0 | 1.7 | 0.00 | 0.03 | 0.03 | 95 | 1007.0 |
| 20260507023503 | 57 | 0 | 0.0 | 0.0 | 0.00 | 0.03 | 0.03 | 95 | 1007.1 |
| 20260507023012 | 56 | 211 | 0.0 | 0.0 | 0.00 | 0.03 | 0.03 | 95 | 1006.1 |
| 20260507023003 | 57 | 0 | 0.0 | 0.0 | 0.00 | 0.03 | 0.03 | 95 | 1007.2 |
| 20260507022503 | 57 | 0 | 0.0 | 0.0 | 0.00 | 0.03 | 0.03 | 95 | 1007.2 |
| 20260507022003 | 57 | 200 | 0.0 | 2.6 | 0.00 | 0.03 | 0.03 | 95 | 1007.1 |
| 20260507021506 | 56 | 202 | 0.0 | 2.6 | 0.00 | 0.03 | 0.03 | 95 | 1006.0 |
| 20260507021503 | 57 | 200 | 0.0 | 2.6 | 0.00 | 0.03 | 0.03 | 95 | 1007.0 |
| 20260507021024 | 57 | 198 | 0.0 | 3.5 | 0.00 | 0.03 | 0.03 | 95 | 1006.9 |
| 20260507020503 | 57 | 198 | 0.9 | 3.5 | 0.00 | 0.03 | 0.03 | 95 | 1007.1 |
| 20260507020013 | 56 | 198 | 0.0 | 3.5 | 0.00 | 0.03 | 0.03 | 95 | 1006.1 |
| 20260507020003 | 57 | 198 | 0.0 | 3.5 | 0.00 | 0.03 | 0.03 | 95 | 1007.1 |
| 20260507015524 | 57 | 0 | 0.0 | 0.0 | 0.00 | 0.03 | 0.03 | 95 | 1007.1 |
| 20260507015003 | 57 | 197 | 0.0 | 3.5 | 0.00 | 0.03 | 0.03 | 95 | 1007.2 |
| 20260507014515 | 56 | 199 | 0.0 | 4.3 | 0.00 | 0.03 | 0.03 | 95 | 1006.2 |
| 20260507014503 | 57 | 193 | 0.9 | 4.3 | 0.00 | 0.03 | 0.03 | 95 | 1007.3 |
| 20260507014024 | 57 | 187 | 0.0 | 4.3 | 0.00 | 0.03 | 0.03 | 95 | 1007.2 |
| 20260507013524 | 57 | 185 | 0.0 | 3.5 | 0.00 | 0.03 | 0.03 | 95 | 1007.3 |
| 20260507013020 | 56 | 185 | 0.0 | 2.6 | 0.00 | 0.03 | 0.03 | 95 | 1006.5 |
| 20260507013003 | 57 | 185 | 0.0 | 2.6 | 0.00 | 0.03 | 0.03 | 95 | 1007.6 |
| 20260507012503 | 57 | 0 | 0.0 | 0.0 | 0.00 | 0.03 | 0.03 | 95 | 1007.7 |
| 20260507012003 | 57 | 0 | 0.0 | 0.0 | 0.00 | 0.03 | 0.03 | 95 | 1007.6 |
| 20260507011516 | 56 | 217 | 0.0 | 1.7 | 0.00 | 0.03 | 0.03 | 95 | 1006.6 |
| 20260507011503 | 56 | 217 | 0.0 | 2.6 | 0.00 | 0.03 | 0.03 | 95 | 1007.6 |
| 20260507011003 | 56 | 217 | 0.0 | 2.6 | 0.00 | 0.03 | 0.03 | 95 | 1007.6 |
| 20260507010503 | 56 | 220 | 0.0 | 1.7 | 0.00 | 0.03 | 0.03 | 95 | 1007.6 |
| 20260507010005 | 56 | 221 | 0.0 | 2.6 | 0.01 | 0.03 | 0.03 | 95 | 1006.6 |
| 20260507010003 | 56 | 211 | 0.0 | 2.6 | 0.01 | 0.03 | 0.03 | 95 | 1007.6 |
| 20260507005524 | 56 | 206 | 0.0 | 3.5 | 0.01 | 0.03 | 0.03 | 95 | 1007.5 |
| 20260507005003 | 56 | 205 | 0.0 | 3.5 | 0.01 | 0.03 | 0.03 | 95 | 1007.6 |
| 20260507004515 | 56 | 219 | 0.0 | 3.5 | 0.01 | 0.03 | 0.03 | 95 | 1006.6 |
| 20260507004503 | 56 | 216 | 0.0 | 3.5 | 0.01 | 0.03 | 0.03 | 95 | 1007.6 |
| 20260507004025 | 56 | 216 | 0.0 | 3.5 | 0.01 | 0.03 | 0.03 | 94 | 1007.5 |
| 20260507003524 | 56 | 249 | 0.0 | 2.6 | 0.01 | 0.03 | 0.03 | 94 | 1007.6 |
| 20260507003009 | 56 | 290 | 0.0 | 2.6 | 0.01 | 0.03 | 0.03 | 94 | 1006.4 |
| 20260507003003 | 56 | 249 | 0.0 | 2.6 | 0.01 | 0.03 | 0.03 | 94 | 1007.4 |
| 20260507002503 | 56 | 189 | 0.9 | 5.2 | 0.01 | 0.03 | 0.03 | 94 | 1007.4 |
| 20260507002003 | 56 | 193 | 0.9 | 5.2 | 0.01 | 0.03 | 0.03 | 94 | 1007.4 |
| 20260507001524 | 56 | 197 | 0.9 | 5.2 | 0.01 | 0.03 | 0.03 | 94 | 1007.5 |
| 20260507001505 | 56 | 193 | 1.7 | 5.2 | 0.01 | 0.03 | 0.03 | 94 | 1006.5 |
| 20260507001024 | 56 | 217 | 0.0 | 2.6 | 0.01 | 0.03 | 0.03 | 94 | 1007.4 |
| 20260507000503 | 56 | 220 | 0.0 | 2.6 | 0.01 | 0.03 | 0.03 | 94 | 1007.3 |
| 20260507000024 | 56 | 223 | 0.0 | 5.2 | 0.00 | 0.02 | 0.02 | 94 | 1006.3 |
| 20260507000003 | 56 | 196 | 0.9 | 5.2 | 0.00 | 0.02 | 0.02 | 94 | 1007.4 |
| 20260506235503 | 56 | 193 | 0.9 | 5.2 | 0.00 | 0.02 | 0.02 | 94 | 1007.3 |
| 20260506235003 | 56 | 217 | 0.0 | 0.9 | 0.00 | 0.02 | 0.02 | 94 | 1007.3 |
| 20260506234516 | 56 | 219 | 0.0 | 2.6 | 0.00 | 0.02 | 0.02 | 94 | 1006.2 |
| 20260506234503 | 56 | 220 | 0.0 | 2.6 | 0.00 | 0.02 | 0.02 | 94 | 1007.2 |
| 20260506234003 | 56 | 210 | 0.0 | 2.6 | 0.00 | 0.02 | 0.02 | 94 | 1007.2 |
| 20260506233503 | 56 | 200 | 0.0 | 1.7 | 0.00 | 0.02 | 0.02 | 94 | 1007.2 |
| 20260506233105 | 56 | 199 | 0.0 | 2.6 | 0.00 | 0.02 | 0.02 | 93 | 1006.1 |
| 20260506233003 | 56 | 199 | 0.0 | 2.6 | 0.00 | 0.02 | 0.02 | 93 | 1007.2 |
| 20260506232503 | 56 | 199 | 0.0 | 2.6 | 0.00 | 0.02 | 0.02 | 93 | 1007.3 |
| 20260506232003 | 56 | 0 | 0.0 | 0.0 | 0.00 | 0.02 | 0.02 | 93 | 1007.3 |
| 20260506231528 | 56 | 198 | 0.0 | 5.2 | 0.00 | 0.02 | 0.02 | 93 | 1006.4 |
| 20260506231503 | 56 | 203 | 0.0 | 5.2 | 0.00 | 0.02 | 0.02 | 93 | 1007.4 |
| 20260506231003 | 57 | 202 | 0.0 | 5.2 | 0.01 | 0.02 | 0.02 | 93 | 1007.5 |
| 20260506230524 | 57 | 204 | 0.0 | 3.5 | 0.01 | 0.02 | 0.02 | 93 | 1007.7 |
| 20260506230008 | 56 | 206 | 0.0 | 3.5 | 0.01 | 0.02 | 0.02 | 93 | 1006.4 |
| 20260506230003 | 57 | 206 | 0.0 | 3.5 | 0.01 | 0.02 | 0.02 | 93 | 1007.5 |
| 20260506225524 | 57 | 206 | 0.0 | 2.6 | 0.01 | 0.02 | 0.02 | 93 | 1007.4 |
| 20260506225003 | 57 | 0 | 0.0 | 0.0 | 0.01 | 0.02 | 0.02 | 93 | 1007.5 |
| 20260506224608 | 57 | 221 | 0.0 | 0.0 | 0.01 | 0.02 | 0.02 | 93 | 1006.3 |
| 20260506224524 | 57 | 213 | 0.0 | 2.6 | 0.01 | 0.02 | 0.02 | 93 | 1007.4 |
| 20260506224003 | 57 | 213 | 0.0 | 2.6 | 0.01 | 0.02 | 0.02 | 93 | 1007.3 |
| 20260506223503 | 57 | 0 | 0.0 | 1.7 | 0.01 | 0.02 | 0.02 | 93 | 1007.3 |
| 20260506223106 | 57 | 238 | 0.0 | 1.7 | 0.01 | 0.02 | 0.02 | 92 | 1006.3 |
| 20260506223003 | 57 | 0 | 0.0 | 1.7 | 0.01 | 0.02 | 0.02 | 92 | 1007.4 |
| 20260506222503 | 58 | 197 | 0.0 | 3.5 | 0.01 | 0.02 | 0.02 | 92 | 1007.5 |
| 20260506222003 | 58 | 196 | 0.0 | 3.5 | 0.01 | 0.02 | 0.02 | 92 | 1007.6 |
| 20260506221514 | 57 | 195 | 0.0 | 1.7 | 0.01 | 0.02 | 0.02 | 92 | 1006.6 |
| 20260506221503 | 58 | 194 | 0.0 | 1.7 | 0.01 | 0.02 | 0.02 | 92 | 1007.7 |
| 20260506221003 | 58 | 193 | 0.0 | 1.7 | 0.00 | 0.01 | 0.01 | 92 | 1007.7 |
| 20260506220524 | 58 | 196 | 0.9 | 4.3 | 0.00 | 0.01 | 0.01 | 92 | 1007.7 |
| 20260506220008 | 58 | 190 | 0.0 | 4.3 | 0.00 | 0.01 | 0.01 | 92 | 1006.8 |
| 20260506220003 | 58 | 196 | 0.9 | 4.3 | 0.00 | 0.01 | 0.01 | 92 | 1007.8 |
| 20260506215503 | 58 | 198 | 0.0 | 2.6 | 0.00 | 0.01 | 0.01 | 91 | 1007.8 |
| 20260506215003 | 59 | 197 | 0.0 | 5.2 | 0.01 | 0.01 | 0.01 | 91 | 1007.8 |
| 20260506214517 | 58 | 198 | 0.9 | 5.2 | 0.01 | 0.01 | 0.01 | 91 | 1006.8 |
| 20260506214503 | 59 | 195 | 0.0 | 5.2 | 0.01 | 0.01 | 0.01 | 91 | 1007.9 |
| 20260506214024 | 59 | 207 | 0.0 | 4.3 | 0.01 | 0.01 | 0.01 | 91 | 1007.9 |
| 20260506213503 | 59 | 220 | 0.0 | 3.5 | 0.01 | 0.01 | 0.01 | 91 | 1008.0 |
| 20260506213024 | 59 | 208 | 0.0 | 4.3 | 0.01 | 0.01 | 0.01 | 91 | 1008.0 |
| 20260506213010 | 58 | 229 | 0.0 | 4.3 | 0.01 | 0.01 | 0.01 | 91 | 1006.9 |
| 20260506212503 | 59 | 203 | 0.0 | 4.3 | 0.01 | 0.01 | 0.01 | 90 | 1008.0 |
| 20260506212003 | 59 | 205 | 0.0 | 4.3 | 0.01 | 0.01 | 0.01 | 90 | 1008.0 |
| 20260506211524 | 59 | 216 | 0.0 | 2.6 | 0.01 | 0.01 | 0.01 | 90 | 1008.0 |
| 20260506211510 | 59 | 207 | 0.0 | 2.6 | 0.01 | 0.01 | 0.01 | 90 | 1007.0 |
| 20260506211003 | 60 | 227 | 0.0 | 0.9 | 0.01 | 0.01 | 0.01 | 90 | 1008.1 |
| 20260506210503 | 60 | 200 | 0.0 | 3.5 | 0.01 | 0.01 | 0.01 | 90 | 1008.1 |
| 20260506210024 | 60 | 199 | 0.0 | 3.5 | 0.01 | 0.01 | 0.01 | 89 | 1008.0 |
| 20260506210018 | 59 | 205 | 0.0 | 3.5 | 0.01 | 0.01 | 0.01 | 89 | 1007.0 |
| 20260506205503 | 60 | 202 | 0.0 | 2.6 | 0.01 | 0.01 | 0.01 | 89 | 1008.1 |
| 20260506205003 | 60 | 205 | 0.0 | 4.3 | 0.00 | 0.00 | 0.00 | 89 | 1008.2 |
| 20260506204512 | 60 | 196 | 0.0 | 4.3 | 0.00 | 0.00 | 0.00 | 88 | 1007.1 |
| 20260506204503 | 60 | 204 | 0.0 | 4.3 | 0.00 | 0.00 | 0.00 | 88 | 1008.2 |
| 20260506204003 | 60 | 205 | 0.9 | 6.1 | 0.00 | 0.00 | 0.00 | 88 | 1008.2 |
| 20260506203503 | 61 | 215 | 0.9 | 6.1 | 0.00 | 0.00 | 0.00 | 88 | 1008.4 |
| 20260506203106 | 60 | 202 | 0.0 | 3.5 | 0.00 | 0.00 | 0.00 | 87 | 1007.2 |
| 20260506203003 | 61 | 210 | 0.9 | 3.5 | 0.00 | 0.00 | 0.00 | 87 | 1008.3 |
| 20260506202503 | 61 | 197 | 0.9 | 6.1 | 0.00 | 0.00 | 0.00 | 87 | 1008.2 |
| 20260506202003 | 61 | 201 | 0.9 | 6.1 | 0.00 | 0.00 | 0.00 | 87 | 1008.2 |
| 20260506201530 | 61 | 207 | 0.0 | 1.7 | 0.00 | 0.00 | 0.00 | 86 | 1007.3 |
| 20260506201503 | 61 | 210 | 0.0 | 1.7 | 0.00 | 0.00 | 0.00 | 86 | 1008.4 |
| 20260506201003 | 62 | 204 | 0.0 | 2.6 | 0.00 | 0.00 | 0.00 | 86 | 1008.4 |
| 20260506200503 | 62 | 208 | 0.0 | 2.6 | 0.00 | 0.00 | 0.00 | 85 | 1008.4 |
| 20260506200013 | 62 | 220 | 0.0 | 12.2 | 0.00 | 0.00 | 0.00 | 84 | 1007.3 |
| 20260506200003 | 62 | 196 | 0.9 | 12.2 | 0.00 | 0.00 | 0.00 | 84 | 1008.3 |
| 20260506195503 | 63 | 197 | 0.9 | 12.2 | 0.00 | 0.00 | 0.00 | 83 | 1008.3 |
| 20260506195003 | 63 | 211 | 0.0 | 2.6 | 0.00 | 0.00 | 0.00 | 82 | 1008.3 |
| 20260506194508 | 63 | 214 | 0.0 | 3.5 | 0.00 | 0.00 | 0.00 | 80 | 1007.2 |
| 20260506194503 | 63 | 208 | 0.0 | 3.5 | 0.00 | 0.00 | 0.00 | 80 | 1008.2 |
| 20260506194003 | 64 | 208 | 0.0 | 3.5 | 0.00 | 0.00 | 0.00 | 79 | 1008.4 |
| 20260506193503 | 64 | 236 | 0.0 | 6.1 | 0.00 | 0.00 | 0.00 | 78 | 1008.5 |
| 20260506193105 | 64 | 223 | 0.0 | 6.1 | 0.00 | 0.00 | 0.00 | 78 | 1007.6 |
| 20260506193003 | 64 | 236 | 0.9 | 6.1 | 0.00 | 0.00 | 0.00 | 77 | 1008.6 |
| 20260506192503 | 64 | 224 | 0.9 | 4.3 | 0.00 | 0.00 | 0.00 | 77 | 1008.6 |
| 20260506192003 | 65 | 210 | 0.9 | 4.3 | 0.00 | 0.00 | 0.00 | 75 | 1008.7 |
| 20260506191517 | 65 | 211 | 0.0 | 5.2 | 0.00 | 0.00 | 0.00 | 74 | 1007.5 |
| 20260506191503 | 65 | 202 | 0.9 | 5.2 | 0.00 | 0.00 | 0.00 | 74 | 1008.6 |
| 20260506191003 | 65 | 203 | 0.9 | 5.2 | 0.00 | 0.00 | 0.00 | 73 | 1008.6 |
| 20260506190503 | 66 | 215 | 0.9 | 4.3 | 0.00 | 0.00 | 0.00 | 73 | 1008.6 |
| 20260506190011 | 65 | 213 | 0.9 | 6.1 | 0.00 | 0.00 | 0.00 | 72 | 1007.6 |
| 20260506190003 | 66 | 212 | 0.9 | 6.1 | 0.00 | 0.00 | 0.00 | 72 | 1008.6 |
| 20260506185503 | 66 | 216 | 0.9 | 7.0 | 0.00 | 0.00 | 0.00 | 72 | 1008.6 |
| 20260506185024 | 66 | 213 | 1.7 | 7.0 | 0.00 | 0.00 | 0.00 | 72 | 1008.5 |
| 20260506184521 | 66 | 208 | 1.7 | 7.0 | 0.00 | 0.00 | 0.00 | 71 | 1007.5 |
| 20260506184503 | 66 | 213 | 1.7 | 7.0 | 0.00 | 0.00 | 0.00 | 71 | 1008.5 |
| 20260506184024 | 66 | 208 | 0.9 | 7.8 | 0.00 | 0.00 | 0.00 | 71 | 1008.7 |
| 20260506183524 | 66 | 202 | 0.9 | 7.8 | 0.00 | 0.00 | 0.00 | 71 | 1008.7 |
| 20260506183026 | 66 | 209 | 0.9 | 8.7 | 0.00 | 0.00 | 0.00 | 71 | 1007.7 |
| 20260506183003 | 66 | 202 | 0.9 | 8.7 | 0.00 | 0.00 | 0.00 | 71 | 1008.8 |
| 20260506182503 | 67 | 200 | 1.7 | 8.7 | 0.00 | 0.00 | 0.00 | 70 | 1008.9 |
| 20260506182003 | 67 | 202 | 1.7 | 7.8 | 0.00 | 0.00 | 0.00 | 69 | 1008.7 |
| 20260506181515 | 67 | 173 | 0.9 | 8.7 | 0.00 | 0.00 | 0.00 | 69 | 1007.7 |
| 20260506181503 | 68 | 210 | 1.7 | 8.7 | 0.00 | 0.00 | 0.00 | 69 | 1008.8 |
| 20260506181024 | 68 | 222 | 0.9 | 8.7 | 0.00 | 0.00 | 0.00 | 68 | 1008.7 |
| 20260506180503 | 68 | 209 | 0.9 | 7.0 | 0.00 | 0.00 | 0.00 | 69 | 1009.0 |
| 20260506180011 | 68 | 201 | 0.9 | 5.2 | 0.00 | 0.00 | 0.00 | 68 | 1007.9 |
| 20260506180004 | 69 | 202 | 0.9 | 5.2 | 0.00 | 0.00 | 0.00 | 68 | 1009.0 |
| 20260506175503 | 69 | 216 | 0.0 | 3.5 | 0.00 | 0.00 | 0.00 | 68 | 1009.1 |
| 20260506175003 | 69 | 239 | 0.9 | 5.2 | 0.00 | 0.00 | 0.00 | 67 | 1009.1 |
| 20260506174521 | 69 | 199 | 0.9 | 5.2 | 0.00 | 0.00 | 0.00 | 67 | 1008.2 |
| 20260506174503 | 69 | 233 | 1.7 | 11.3 | 0.00 | 0.00 | 0.00 | 67 | 1009.3 |
| 20260506174003 | 69 | 222 | 2.6 | 14.8 | 0.00 | 0.00 | 0.00 | 67 | 1009.3 |
| 20260506173503 | 69 | 213 | 2.6 | 14.8 | 0.00 | 0.00 | 0.00 | 67 | 1009.4 |
| 20260506173016 | 68 | 267 | 0.9 | 8.7 | 0.00 | 0.00 | 0.00 | 67 | 1008.4 |
| 20260506173003 | 69 | 206 | 1.7 | 11.3 | 0.00 | 0.00 | 0.00 | 67 | 1009.4 |
| 20260506172503 | 69 | 210 | 1.7 | 11.3 | 0.00 | 0.00 | 0.00 | 67 | 1009.4 |
| 20260506172003 | 69 | 206 | 0.9 | 10.4 | 0.00 | 0.00 | 0.00 | 67 | 1009.4 |
| 20260506171524 | 69 | 210 | 0.9 | 6.1 | 0.00 | 0.00 | 0.00 | 68 | 1009.2 |
| 20260506171515 | 69 | 180 | 0.0 | 6.1 | 0.00 | 0.00 | 0.00 | 68 | 1008.2 |
| 20260506171003 | 69 | 207 | 0.9 | 6.1 | 0.00 | 0.00 | 0.00 | 68 | 1009.2 |
| 20260506170503 | 68 | 198 | 1.7 | 7.0 | 0.00 | 0.00 | 0.00 | 69 | 1009.1 |
| 20260506170020 | 67 | 213 | 0.9 | 7.0 | 0.00 | 0.00 | 0.00 | 70 | 1008.3 |
| 20260506170003 | 68 | 200 | 1.7 | 7.0 | 0.00 | 0.00 | 0.00 | 70 | 1009.4 |
| 20260506165503 | 67 | 204 | 1.7 | 7.8 | 0.00 | 0.00 | 0.00 | 70 | 1009.4 |
| 20260506165003 | 67 | 201 | 1.7 | 7.8 | 0.00 | 0.00 | 0.00 | 70 | 1009.6 |
| 20260506164514 | 67 | 202 | 0.9 | 7.0 | 0.00 | 0.00 | 0.00 | 70 | 1008.6 |
| 20260506164503 | 67 | 195 | 0.9 | 7.0 | 0.00 | 0.00 | 0.00 | 70 | 1009.7 |
| 20260506164024 | 67 | 197 | 0.9 | 7.0 | 0.00 | 0.00 | 0.00 | 70 | 1009.7 |
| 20260506163503 | 68 | 201 | 1.7 | 7.8 | 0.00 | 0.00 | 0.00 | 70 | 1009.8 |
| 20260506163011 | 67 | 204 | 0.0 | 7.8 | 0.00 | 0.00 | 0.00 | 69 | 1008.8 |
| 20260506163003 | 68 | 202 | 0.9 | 7.8 | 0.00 | 0.00 | 0.00 | 69 | 1009.8 |
| 20260506162503 | 68 | 200 | 0.9 | 5.2 | 0.00 | 0.00 | 0.00 | 69 | 1010.0 |
| 20260506162003 | 68 | 205 | 0.9 | 5.2 | 0.00 | 0.00 | 0.00 | 69 | 1010.1 |
| 20260506161503 | 68 | 208 | 0.9 | 7.8 | 0.00 | 0.00 | 0.00 | 69 | 1010.1 |
| 20260506161003 | 68 | 205 | 0.9 | 7.8 | 0.00 | 0.00 | 0.00 | 69 | 1010.1 |
| 20260506160503 | 68 | 216 | 0.9 | 12.2 | 0.00 | 0.00 | 0.00 | 68 | 1010.2 |
| 20260506160010 | 68 | 244 | 0.9 | 12.2 | 0.00 | 0.00 | 0.00 | 68 | 1009.2 |
| 20260506160003 | 68 | 220 | 0.9 | 12.2 | 0.00 | 0.00 | 0.00 | 68 | 1010.3 |
| 20260506155503 | 68 | 216 | 0.9 | 6.1 | 0.00 | 0.00 | 0.00 | 69 | 1010.4 |
| 20260506155024 | 68 | 216 | 0.9 | 7.0 | 0.00 | 0.00 | 0.00 | 69 | 1010.5 |
| 20260506154517 | 68 | 229 | 0.0 | 7.0 | 0.00 | 0.00 | 0.00 | 70 | 1009.3 |
| 20260506154503 | 68 | 204 | 0.9 | 7.0 | 0.00 | 0.00 | 0.00 | 70 | 1010.4 |
| 20260506154003 | 68 | 200 | 1.7 | 7.8 | 0.00 | 0.00 | 0.00 | 69 | 1010.5 |
| 20260506153503 | 68 | 204 | 1.7 | 7.8 | 0.00 | 0.00 | 0.00 | 69 | 1010.6 |
| 20260506153011 | 67 | 213 | 0.9 | 5.2 | 0.00 | 0.00 | 0.00 | 69 | 1009.8 |
| 20260506153003 | 68 | 209 | 0.9 | 5.2 | 0.00 | 0.00 | 0.00 | 69 | 1010.8 |
| 20260506152503 | 68 | 228 | 0.9 | 13.0 | 0.00 | 0.00 | 0.00 | 70 | 1010.8 |
| 20260506152024 | 68 | 220 | 1.7 | 13.0 | 0.00 | 0.00 | 0.00 | 71 | 1010.8 |
| 20260506151506 | 67 | 196 | 1.7 | 9.6 | 0.00 | 0.00 | 0.00 | 70 | 1009.8 |
| 20260506151503 | 67 | 197 | 0.9 | 9.6 | 0.00 | 0.00 | 0.00 | 70 | 1010.9 |
| 20260506151003 | 67 | 200 | 0.9 | 9.6 | 0.00 | 0.00 | 0.00 | 70 | 1010.8 |
| 20260506150503 | 68 | 214 | 0.9 | 7.0 | 0.00 | 0.00 | 0.00 | 69 | 1010.9 |
| 20260506150024 | 68 | 221 | 1.7 | 7.0 | 0.00 | 0.00 | 0.00 | 69 | 1010.8 |
| 20260506150019 | 67 | 218 | 0.9 | 7.0 | 0.00 | 0.00 | 0.00 | 69 | 1009.7 |
| 20260506145503 | 68 | 213 | 1.7 | 8.7 | 0.00 | 0.00 | 0.00 | 69 | 1010.8 |
| 20260506145003 | 68 | 209 | 0.9 | 8.7 | 0.00 | 0.00 | 0.00 | 69 | 1010.8 |
| 20260506144515 | 68 | 205 | 1.7 | 7.8 | 0.00 | 0.00 | 0.00 | 69 | 1009.8 |
| 20260506144503 | 68 | 209 | 0.9 | 7.8 | 0.00 | 0.00 | 0.00 | 70 | 1010.8 |
| 20260506144003 | 68 | 202 | 0.9 | 7.0 | 0.00 | 0.00 | 0.00 | 70 | 1010.7 |
| 20260506143503 | 68 | 196 | 0.9 | 6.1 | 0.00 | 0.00 | 0.00 | 69 | 1010.6 |
| 20260506143027 | 67 | 184 | 0.0 | 7.0 | 0.00 | 0.00 | 0.00 | 70 | 1009.4 |
| 20260506143024 | 68 | 207 | 0.9 | 7.0 | 0.00 | 0.00 | 0.00 | 70 | 1010.5 |
| 20260506142524 | 68 | 201 | 0.9 | 7.0 | 0.00 | 0.00 | 0.00 | 70 | 1010.6 |
| 20260506142003 | 67 | 193 | 0.9 | 5.2 | 0.00 | 0.00 | 0.00 | 71 | 1010.6 |
| 20260506141509 | 67 | 155 | 0.0 | 5.2 | 0.00 | 0.00 | 0.00 | 72 | 1009.5 |
| 20260506141503 | 67 | 197 | 0.9 | 4.3 | 0.00 | 0.00 | 0.00 | 72 | 1010.6 |
| 20260506141024 | 67 | 192 | 0.0 | 4.3 | 0.00 | 0.00 | 0.00 | 72 | 1010.6 |
| 20260506140503 | 67 | 192 | 0.9 | 6.1 | 0.00 | 0.00 | 0.00 | 72 | 1010.7 |
| 20260506140107 | 66 | 190 | 0.0 | 6.1 | 0.00 | 0.00 | 0.00 | 72 | 1009.6 |
| 20260506140003 | 67 | 191 | 0.9 | 5.2 | 0.00 | 0.00 | 0.00 | 73 | 1010.6 |
| 20260506135524 | 66 | 198 | 1.7 | 7.0 | 0.00 | 0.00 | 0.00 | 73 | 1010.5 |
| 20260506135003 | 65 | 204 | 0.9 | 7.0 | 0.00 | 0.00 | 0.00 | 74 | 1010.6 |
| 20260506134511 | 65 | 212 | 0.0 | 2.6 | 0.00 | 0.00 | 0.00 | 75 | 1009.6 |
| 20260506134503 | 65 | 187 | 0.0 | 4.3 | 0.00 | 0.00 | 0.00 | 75 | 1010.7 |
| 20260506134003 | 65 | 225 | 0.9 | 4.3 | 0.00 | 0.00 | 0.00 | 76 | 1011.1 |
| 20260506133503 | 65 | 219 | 0.9 | 8.7 | 0.00 | 0.00 | 0.00 | 76 | 1011.2 |
| 20260506133024 | 64 | 204 | 1.7 | 8.7 | 0.00 | 0.00 | 0.00 | 76 | 1011.2 |
| 20260506133017 | 64 | 211 | 0.9 | 8.7 | 0.00 | 0.00 | 0.00 | 76 | 1010.1 |
| 20260506132503 | 64 | 204 | 0.9 | 6.1 | 0.00 | 0.00 | 0.00 | 78 | 1011.2 |
| 20260506132003 | 64 | 207 | 0.0 | 3.5 | 0.00 | 0.00 | 0.00 | 79 | 1011.3 |
| 20260506131515 | 63 | 200 | 0.0 | 3.5 | 0.00 | 0.00 | 0.00 | 79 | 1010.2 |
| 20260506131503 | 63 | 220 | 0.9 | 3.5 | 0.00 | 0.00 | 0.00 | 79 | 1011.3 |
| 20260506131003 | 63 | 212 | 0.9 | 4.3 | 0.00 | 0.00 | 0.00 | 81 | 1011.2 |
| 20260506130524 | 62 | 210 | 0.9 | 7.0 | 0.00 | 0.00 | 0.00 | 81 | 1011.2 |
| 20260506130011 | 61 | 207 | 0.0 | 4.3 | 0.00 | 0.00 | 0.00 | 82 | 1010.2 |
| 20260506130003 | 62 | 222 | 0.9 | 7.0 | 0.00 | 0.00 | 0.00 | 82 | 1011.3 |
| 20260506125503 | 61 | 213 | 0.9 | 7.0 | 0.00 | 0.00 | 0.00 | 82 | 1011.2 |
| 20260506125003 | 61 | 210 | 0.9 | 7.0 | 0.00 | 0.00 | 0.00 | 83 | 1011.3 |
| 20260506124513 | 60 | 192 | 0.0 | 7.0 | 0.00 | 0.00 | 0.00 | 83 | 1010.4 |
| 20260506124503 | 61 | 200 | 0.9 | 4.3 | 0.00 | 0.00 | 0.00 | 83 | 1011.5 |
| 20260506124003 | 61 | 205 | 0.9 | 7.8 | 0.00 | 0.00 | 0.00 | 83 | 1011.4 |
| 20260506123503 | 60 | 212 | 0.9 | 7.8 | 0.00 | 0.00 | 0.00 | 84 | 1011.4 |
| 20260506123105 | 60 | 244 | 0.0 | 2.6 | 0.00 | 0.00 | 0.00 | 84 | 1010.3 |
| 20260506123024 | 60 | 218 | 0.0 | 2.6 | 0.00 | 0.00 | 0.00 | 84 | 1011.4 |
| 20260506122503 | 60 | 213 | 0.0 | 2.6 | 0.00 | 0.00 | 0.00 | 84 | 1011.2 |
| 20260506122003 | 60 | 228 | 0.0 | 2.6 | 0.00 | 0.00 | 0.00 | 85 | 1011.1 |
| 20260506121510 | 59 | 226 | 0.0 | 3.5 | 0.00 | 0.00 | 0.00 | 86 | 1010.1 |
| 20260506121503 | 60 | 215 | 0.0 | 3.5 | 0.00 | 0.00 | 0.00 | 86 | 1011.1 |
| 20260506121003 | 59 | 210 | 0.9 | 4.3 | 0.00 | 0.00 | 0.00 | 86 | 1011.3 |
| 20260506120503 | 59 | 207 | 0.9 | 4.3 | 0.00 | 0.00 | 0.00 | 86 | 1011.6 |
| 20260506120105 | 59 | 207 | 0.0 | 6.1 | 0.00 | 0.00 | 0.00 | 86 | 1010.5 |
| 20260506120003 | 59 | 206 | 0.9 | 6.1 | 0.00 | 0.00 | 0.00 | 86 | 1011.6 |
| 20260506115503 | 59 | 204 | 0.9 | 6.1 | 0.00 | 0.00 | 0.00 | 86 | 1011.7 |
| 20260506115003 | 59 | 204 | 0.9 | 4.3 | 0.00 | 0.00 | 0.00 | 87 | 1011.8 |
| 20260506114516 | 58 | 205 | 0.0 | 5.2 | 0.00 | 0.00 | 0.00 | 87 | 1010.7 |
| 20260506114503 | 59 | 202 | 0.9 | 9.6 | 0.00 | 0.00 | 0.00 | 87 | 1011.8 |
| 20260506114003 | 59 | 200 | 0.9 | 9.6 | 0.00 | 0.00 | 0.00 | 87 | 1011.8 |
| 20260506113503 | 58 | 197 | 0.9 | 6.1 | 0.00 | 0.00 | 0.00 | 88 | 1011.9 |
| 20260506113016 | 58 | 196 | 1.7 | 6.1 | 0.00 | 0.00 | 0.00 | 88 | 1010.7 |
| 20260506113003 | 58 | 197 | 0.9 | 6.1 | 0.00 | 0.00 | 0.00 | 88 | 1011.8 |
| 20260506112503 | 58 | 203 | 0.9 | 4.3 | 0.00 | 0.00 | 0.00 | 89 | 1011.8 |
| 20260506112003 | 58 | 204 | 0.9 | 4.3 | 0.00 | 0.00 | 0.00 | 88 | 1011.8 |
| 20260506111516 | 57 | 202 | 0.0 | 4.3 | 0.00 | 0.00 | 0.00 | 89 | 1010.7 |
| 20260506111503 | 58 | 200 | 0.9 | 5.2 | 0.00 | 0.00 | 0.00 | 89 | 1011.7 |
| 20260506111003 | 58 | 198 | 0.9 | 5.2 | 0.00 | 0.00 | 0.00 | 89 | 1011.7 |
| 20260506110503 | 58 | 199 | 0.0 | 3.5 | 0.00 | 0.00 | 0.00 | 89 | 1011.7 |
| 20260506110009 | 57 | 191 | 0.0 | 2.6 | 0.00 | 0.00 | 0.00 | 89 | 1010.7 |
| 20260506110003 | 58 | 202 | 0.0 | 2.6 | 0.00 | 0.00 | 0.00 | 89 | 1011.8 |
| 20260506105503 | 58 | 203 | 0.0 | 2.6 | 0.00 | 0.00 | 0.00 | 88 | 1011.7 |
| 20260506105003 | 58 | 0 | 0.0 | 2.6 | 0.00 | 0.00 | 0.00 | 88 | 1011.8 |
| 20260506104505 | 57 | 203 | 0.0 | 2.6 | 0.00 | 0.00 | 0.00 | 88 | 1010.7 |
| 20260506104503 | 58 | 199 | 0.0 | 2.6 | 0.00 | 0.00 | 0.00 | 88 | 1011.8 |
| 20260506104003 | 58 | 200 | 0.0 | 3.5 | 0.00 | 0.00 | 0.00 | 88 | 1011.8 |
| 20260506103503 | 58 | 200 | 0.0 | 3.5 | 0.00 | 0.00 | 0.00 | 88 | 1011.8 |
| 20260506103014 | 57 | 200 | 0.0 | 3.5 | 0.00 | 0.00 | 0.00 | 88 | 1010.6 |
| 20260506103003 | 58 | 200 | 0.0 | 3.5 | 0.00 | 0.00 | 0.00 | 88 | 1011.7 |
| 20260506102524 | 58 | 200 | 0.0 | 3.5 | 0.00 | 0.00 | 0.00 | 87 | 1011.7 |
| 20260506102003 | 58 | 211 | 0.0 | 3.5 | 0.00 | 0.00 | 0.00 | 87 | 1011.7 |
| 20260506101524 | 58 | 211 | 0.0 | 2.6 | 0.00 | 0.00 | 0.00 | 87 | 1011.7 |
| 20260506101505 | 57 | 210 | 0.0 | 2.6 | 0.00 | 0.00 | 0.00 | 87 | 1010.7 |
| 20260506101003 | 58 | 212 | 0.0 | 2.6 | 0.00 | 0.00 | 0.00 | 87 | 1011.6 |
| 20260506100503 | 58 | 212 | 0.0 | 3.5 | 0.00 | 0.00 | 0.00 | 87 | 1011.6 |
| 20260506100017 | 57 | 212 | 0.0 | 3.5 | 0.00 | 0.00 | 0.00 | 87 | 1010.4 |
| 20260506100003 | 58 | 211 | 0.0 | 3.5 | 0.00 | 0.00 | 0.00 | 87 | 1011.6 |
| 20260506095503 | 58 | 212 | 0.0 | 3.5 | 0.00 | 0.00 | 0.00 | 87 | 1011.5 |
| 20260506095024 | 58 | 202 | 0.0 | 4.3 | 0.00 | 0.00 | 0.00 | 86 | 1011.5 |
| 20260506094524 | 58 | 201 | 0.9 | 4.3 | 0.00 | 0.00 | 0.00 | 86 | 1011.4 |
| 20260506094513 | 58 | 212 | 0.0 | 4.3 | 0.00 | 0.00 | 0.00 | 86 | 1010.3 |
| 20260506094024 | 58 | 203 | 0.0 | 3.5 | 0.00 | 0.00 | 0.00 | 86 | 1011.4 |
| 20260506093503 | 58 | 203 | 0.9 | 4.3 | 0.00 | 0.00 | 0.00 | 86 | 1011.4 |
| 20260506093005 | 58 | 205 | 0.0 | 4.3 | 0.00 | 0.00 | 0.00 | 86 | 1010.3 |
| 20260506093003 | 58 | 199 | 0.0 | 4.3 | 0.00 | 0.00 | 0.00 | 86 | 1011.4 |
| 20260506092503 | 58 | 190 | 0.0 | 3.5 | 0.00 | 0.00 | 0.00 | 86 | 1011.3 |
| 20260506092003 | 58 | 190 | 0.9 | 4.3 | 0.00 | 0.00 | 0.00 | 86 | 1011.3 |
| 20260506091520 | 58 | 189 | 0.0 | 4.3 | 0.00 | 0.00 | 0.00 | 86 | 1010.2 |
| 20260506091503 | 58 | 192 | 0.0 | 4.3 | 0.00 | 0.00 | 0.00 | 86 | 1011.3 |
| 20260506091003 | 58 | 198 | 0.0 | 4.3 | 0.00 | 0.00 | 0.00 | 86 | 1011.3 |
| 20260506090503 | 58 | 206 | 0.9 | 4.3 | 0.00 | 0.00 | 0.00 | 85 | 1011.4 |
| 20260506090024 | 58 | 203 | 0.9 | 4.3 | 0.00 | 0.00 | 0.00 | 85 | 1011.4 |
| 20260506090019 | 58 | 256 | 0.9 | 4.3 | 0.00 | 0.00 | 0.00 | 85 | 1010.4 |
| 20260506085503 | 59 | 202 | 0.9 | 4.3 | 0.00 | 0.00 | 0.00 | 85 | 1011.5 |
| 20260506085003 | 59 | 206 | 0.9 | 4.3 | 0.00 | 0.00 | 0.00 | 85 | 1011.5 |
| 20260506084507 | 58 | 207 | 0.0 | 4.3 | 0.00 | 0.00 | 0.00 | 85 | 1010.5 |
| 20260506084503 | 59 | 210 | 0.9 | 4.3 | 0.00 | 0.00 | 0.00 | 85 | 1011.6 |
| 20260506084003 | 59 | 221 | 0.9 | 4.3 | 0.00 | 0.00 | 0.00 | 84 | 1011.6 |
| 20260506083524 | 59 | 213 | 0.9 | 4.3 | 0.00 | 0.00 | 0.00 | 84 | 1011.6 |
| 20260506083019 | 58 | 195 | 0.9 | 4.3 | 0.00 | 0.00 | 0.00 | 84 | 1010.5 |
| 20260506083003 | 59 | 197 | 0.0 | 4.3 | 0.00 | 0.00 | 0.00 | 84 | 1011.6 |
| 20260506082503 | 59 | 199 | 0.0 | 3.5 | 0.00 | 0.00 | 0.00 | 84 | 1011.6 |
| 20260506082024 | 59 | 201 | 0.0 | 1.7 | 0.00 | 0.00 | 0.00 | 83 | 1011.6 |
| 20260506081513 | 59 | 213 | 0.0 | 6.1 | 0.00 | 0.00 | 0.00 | 83 | 1010.5 |
| 20260506081503 | 59 | 203 | 0.0 | 6.1 | 0.00 | 0.00 | 0.00 | 83 | 1011.6 |
| 20260506081003 | 59 | 208 | 0.9 | 6.1 | 0.00 | 0.00 | 0.00 | 83 | 1011.5 |
| 20260506080503 | 59 | 210 | 0.9 | 4.3 | 0.00 | 0.00 | 0.00 | 83 | 1011.5 |
| 20260506073524 | 60 | 221 | 0.9 | 4.3 | 0.00 | 0.00 | 0.00 | 82 | 1011.5 |
| 20260506073024 | 59 | 230 | 0.9 | 6.1 | 0.00 | 0.00 | 0.00 | 83 | 1011.5 |
| 20260506073015 | 59 | 211 | 0.9 | 4.3 | 0.00 | 0.00 | 0.00 | 82 | 1010.4 |
| 20260506072503 | 60 | 211 | 0.9 | 6.1 | 0.00 | 0.00 | 0.00 | 82 | 1011.4 |
| 20260506072024 | 60 | 202 | 0.9 | 7.0 | 0.00 | 0.00 | 0.00 | 83 | 1011.4 |
| 20260506071508 | 59 | 196 | 0.9 | 7.0 | 0.00 | 0.00 | 0.00 | 82 | 1010.3 |
| 20260506071503 | 59 | 204 | 0.9 | 7.0 | 0.00 | 0.00 | 0.00 | 82 | 1011.3 |
| 20260506071003 | 59 | 206 | 0.9 | 5.2 | 0.00 | 0.00 | 0.00 | 82 | 1011.2 |
| 20260506070503 | 59 | 203 | 0.9 | 5.2 | 0.00 | 0.00 | 0.00 | 82 | 1011.2 |
| 20260506070105 | 59 | 216 | 0.0 | 4.3 | 0.00 | 0.00 | 0.00 | 82 | 1010.2 |
| 20260506062503 | 60 | 215 | 0.0 | 4.3 | 0.00 | 0.00 | 0.00 | 80 | 1011.3 |
| 20260506062003 | 60 | 203 | 0.9 | 5.2 | 0.00 | 0.00 | 0.00 | 80 | 1011.3 |
| 20260506061524 | 59 | 202 | 0.0 | 5.2 | 0.00 | 0.00 | 0.00 | 80 | 1010.2 |
| 20260506061503 | 59 | 198 | 0.9 | 5.2 | 0.00 | 0.00 | 0.00 | 80 | 1011.2 |
| 20260506061003 | 59 | 197 | 0.9 | 5.2 | 0.00 | 0.00 | 0.00 | 80 | 1011.2 |
| 20260506060503 | 59 | 204 | 0.9 | 5.2 | 0.00 | 0.00 | 0.00 | 80 | 1011.3 |
| 20260506051003 | 60 | 202 | 1.7 | 7.0 | 0.00 | 0.00 | 0.00 | 78 | 1011.7 |
| 20260506050503 | 60 | 197 | 0.9 | 7.0 | 0.00 | 0.00 | 0.00 | 77 | 1011.8 |
| 20260506045003 | 60 | 211 | 0.9 | 7.0 | 0.00 | 0.00 | 0.00 | 77 | 1011.9 |
| 20260506044524 | 60 | 210 | 0.0 | 6.1 | 0.00 | 0.00 | 0.00 | 77 | 1011.9 |
| 20260506044510 | 59 | 211 | 0.0 | 6.1 | 0.00 | 0.00 | 0.00 | 77 | 1010.9 |
| 20260506044003 | 60 | 212 | 0.0 | 3.5 | 0.00 | 0.00 | 0.00 | 76 | 1011.9 |
| 20260506043503 | 60 | 212 | 0.0 | 3.5 | 0.00 | 0.00 | 0.00 | 76 | 1011.9 |
| 20260506043034 | 59 | 215 | 0.0 | 2.6 | 0.00 | 0.00 | 0.00 | 76 | 1010.9 |
| 20260506043003 | 60 | 218 | 0.0 | 3.5 | 0.00 | 0.00 | 0.00 | 76 | 1011.9 |
| 20260506042503 | 60 | 208 | 0.0 | 3.5 | 0.00 | 0.00 | 0.00 | 76 | 1011.9 |
| 20260506042003 | 59 | 206 | 0.9 | 3.5 | 0.00 | 0.00 | 0.00 | 76 | 1011.8 |
| 20260506041510 | 59 | 217 | 0.0 | 4.3 | 0.00 | 0.00 | 0.00 | 75 | 1010.7 |
| 20260506041503 | 59 | 205 | 0.9 | 4.3 | 0.00 | 0.00 | 0.00 | 75 | 1011.8 |
| 20260506041024 | 59 | 201 | 0.0 | 4.3 | 0.00 | 0.00 | 0.00 | 75 | 1011.8 |
| 20260506040503 | 59 | 210 | 0.0 | 3.5 | 0.00 | 0.00 | 0.00 | 75 | 1011.7 |
| 20260506040108 | 59 | 226 | 0.0 | 4.3 | 0.00 | 0.00 | 0.00 | 75 | 1010.7 |
| 20260506040003 | 59 | 200 | 0.9 | 4.3 | 0.00 | 0.00 | 0.00 | 75 | 1011.7 |
| 20260506035503 | 59 | 199 | 0.9 | 4.3 | 0.00 | 0.00 | 0.00 | 75 | 1011.8 |
| 20260506035024 | 59 | 203 | 0.9 | 4.3 | 0.00 | 0.00 | 0.00 | 75 | 1011.8 |
| 20260506034518 | 59 | 213 | 0.0 | 3.5 | 0.00 | 0.00 | 0.00 | 74 | 1010.7 |
| 20260506034503 | 59 | 206 | 0.9 | 4.3 | 0.00 | 0.00 | 0.00 | 74 | 1011.8 |
| 20260506034003 | 59 | 207 | 0.9 | 4.3 | 0.00 | 0.00 | 0.00 | 74 | 1011.7 |
| 20260506033524 | 59 | 200 | 0.9 | 3.5 | 0.00 | 0.00 | 0.00 | 74 | 1011.7 |
| 20260506033017 | 59 | 197 | 0.0 | 3.5 | 0.00 | 0.00 | 0.00 | 74 | 1010.7 |
| 20260506033003 | 59 | 198 | 0.9 | 3.5 | 0.00 | 0.00 | 0.00 | 74 | 1011.7 |
| 20260506032503 | 59 | 203 | 0.9 | 4.3 | 0.00 | 0.00 | 0.00 | 74 | 1011.7 |
| 20260506032003 | 60 | 202 | 0.9 | 4.3 | 0.00 | 0.00 | 0.00 | 73 | 1011.6 |
| 20260506031506 | 59 | 203 | 0.0 | 4.3 | 0.00 | 0.00 | 0.00 | 73 | 1010.6 |
| 20260506031503 | 60 | 201 | 0.9 | 4.3 | 0.00 | 0.00 | 0.00 | 73 | 1011.6 |